Main page
METAR-TAF:

METAR-TAF

Airports :

Barcelona–El Prat Airport

Barcelona, Spain

latitude: 41-17N, longitude: 002-04E, elevation: 4 m

Current weather observation

The report was made 23 minutes ago, at 23:00 UTC
Wind 7 kt from the North/Northwest
Temperature 13°C
Humidity 82%
Pressure 1023 hPa
Visibility 10 km or more
Few clouds at a height of 2500 ft

METAR: LEBL 282300Z 33007KT 9999 FEW025 13/10 Q1023 NOSIG

Time: 00:23 (23:23 UTC)

Forecast

The report was made 6 hours and 23 minutes ago, at 17:00 UTC
Forecast valid from 28 at 18 UTC to 29 at 18 UTC
Wind 8 kt from the West/Southwest
Visibility 10 km or more
Few clouds at a height of 2500 ft
Becoming
from 28 at 18 UTC to 28 at 21 UTC
Wind 6 kt from the North
Becoming
from 29 at 10 UTC to 29 at 12 UTC
Wind 7 kt from the South/Southwest

TAF: LEBL 281700Z 2818/2918 25008KT 9999 FEW025 TX21/2913Z TN12/2906Z BECMG 2818/2821 35006KT BECMG 2910/2912 20007KT

Weather observations and forecasts of more than 4000 airports (METAR and TAF reports).

The available stations are represented by yellow and red dots on the map.

Hover mouse over dot to see the name of the station.

Then click to see weather observations and forecasts.

To change the map : click on the green buttons with a black cross to zoom in, on the green button with a dash to zoom out, or on the green arrows for adjacent maps.


METAR-TAF: